This is the latest recevied weather packets stored in our database for station/object RW6A-13. If no packets are shown the sender has not sent any weather packets the latest 1 day(s).
| Time | Temp. | Humidity | Pressure | Rain* | Wind** | Luminosity | Snow |
|---|---|---|---|---|---|---|---|
| 1778096720 | 13.89° C | 76% | 1011 hPa | 0 mm | - | - | - |
| 1778096120 | 13.89° C | 76% | 1011.1 hPa | 0 mm | - | - | - |
| 1778095820 | 13.89° C | 76% | 1011.1 hPa | 0 mm | - | - | - |
| 1778093402 | 13.89° C | 77% | 1011.1 hPa | 0 mm | - | - | - |
| 1778092500 | 14.44° C | 73% | 1011 hPa | 0 mm | - | - | - |
| 1778091901 | 15° C | 71% | 1010.9 hPa | 0 mm | - | - | - |
| 1778091600 | 15° C | 71% | 1010.8 hPa | 0 mm | - | - | - |
| 1778090698 | 15° C | 70% | 1010.8 hPa | 0 mm | - | - | - |
| 1778090398 | 15.56° C | 71% | 1010.9 hPa | 0 mm | - | - | - |
| 1778088898 | 16.11° C | 68% | 1010.6 hPa | 0 mm | - | - | - |
| 1778087997 | 16.67° C | 67% | 1010.6 hPa | 0 mm | - | - | - |
| 1778087095 | 16.67° C | 66% | 1010.5 hPa | 0 mm | - | - | - |
| 1778086495 | 17.22° C | 66% | 1010.3 hPa | 0 mm | - | - | - |
| 1778086194 | 17.22° C | 64% | 1010.3 hPa | 0 mm | - | - | - |
| 1778083795 | 18.89° C | 58% | 1010 hPa | 0 mm | - | - | - |
| 1778082894 | 19.44° C | 56% | 1009.9 hPa | 0 mm | - | - | - |
| 1778081994 | 19.44° C | 54% | 1009.9 hPa | 0 mm | - | - | - |
| 1778081094 | 19.44° C | 52% | 1009.8 hPa | 0 mm | - | - | - |
| 1778080194 | 20° C | 50% | 1009.8 hPa | 0 mm | - | - | - |
| 1778079893 | 20.56° C | 50% | 1009.7 hPa | 0 mm | - | - | - |
| 1778079294 | 20.56° C | 51% | 1009.7 hPa | 0 mm | - | - | - |
| 1778078393 | 20.56° C | 51% | 1009.7 hPa | 0 mm | - | - | - |
| 1778076593 | 21.11° C | 49% | 1009.7 hPa | 0 mm | - | - | - |
| 1778075393 | 21.67° C | 48% | 1009.7 hPa | 0 mm | - | - | - |
| 1778074193 | 21.67° C | 48% | 1009.7 hPa | 0 mm | - | - | - |
* Rain latest hour (hover to see other rain measurements)
** Current wind speed in m/s (hover to see current wind gust speed)